Time;durP1;ratioP1;P1;durP2;ratioP2;P2;SDS_P1;SDS_P2;PMS_P1;PMS_P2;Temp;Humidity;BMP_temperature;BMP_pressure;BME280_temperature;BME280_humidity;BME280_pressure;Samples;Min_cycle;Max_cycle;Signal;HPM_P1;HPM_P2
2021/03/23 00:01:14;;;;;;;7.82;3.30;;;;;;;;;;5050427;28;20033;-87
2021/03/23 00:03:41;;;;;;;11.50;2.97;;;;;;;;;;5050953;28;20214;-87
2021/03/23 00:06:08;;;;;;;11.43;3.45;;;;;;;;;;5049179;28;20095;-87
2021/03/23 00:08:34;;;;;;;8.57;3.30;;;;;;;;;;5050645;28;20163;-87
2021/03/23 00:11:02;;;;;;;10.88;3.67;;;;;;;;;;5043633;28;20033;-87
2021/03/23 00:13:28;;;;;;;7.63;3.30;;;;;;;;;;5049318;28;20487;-87
2021/03/23 00:15:54;;;;;;;8.48;2.97;;;;;;;;;;5049673;28;20369;-87
2021/03/23 00:18:20;;;;;;;11.27;3.53;;;;;;;;;;5048290;28;20037;-87
2021/03/23 00:20:46;;;;;;;11.20;3.70;;;;;;;;;;5053924;28;20080;-87
2021/03/23 00:23:13;;;;;;;8.45;3.17;;;;;;;;;;5049955;28;20596;-87
2021/03/23 00:25:39;;;;;;;6.55;2.85;;;;;;;;;;5046773;28;20071;-86
2021/03/23 00:28:06;;;;;;;7.45;3.13;;;;;;;;;;5062110;28;20491;-87
2021/03/23 00:30:32;;;;;;;7.50;3.28;;;;;;;;;;5050411;28;20108;-87
2021/03/23 00:32:58;;;;;;;6.80;3.20;;;;;;;;;;5053238;28;20024;-87
2021/03/23 00:35:24;;;;;;;6.75;3.10;;;;;;;;;;5049189;28;20056;-87
2021/03/23 00:37:51;;;;;;;11.07;3.55;;;;;;;;;;5047018;28;20033;-87
2021/03/23 00:40:19;;;;;;;9.57;3.55;;;;;;;;;;5049208;28;20021;-87
2021/03/23 00:42:45;;;;;;;9.30;3.03;;;;;;;;;;5046800;28;20532;-88
2021/03/23 00:45:11;;;;;;;8.68;3.70;;;;;;;;;;5055387;28;20526;-87
2021/03/23 00:47:37;;;;;;;8.95;4.10;;;;;;;;;;5050093;28;20025;-87
2021/03/23 00:50:04;;;;;;;11.55;3.30;;;;;;;;;;5049260;28;20021;-87
2021/03/23 00:52:30;;;;;;;8.35;3.65;;;;;;;;;;5047157;28;20048;-87
2021/03/23 00:54:56;;;;;;;12.52;4.03;;;;;;;;;;5043935;28;20037;-87
2021/03/23 00:57:22;;;;;;;10.05;3.95;;;;;;;;;;5049334;28;20029;-87
2021/03/23 00:59:48;;;;;;;10.38;4.80;;;;;;;;;;5050291;28;20032;-87
2021/03/23 01:02:14;;;;;;;9.75;3.70;;;;;;;;;;5049163;28;20033;-87
2021/03/23 01:04:40;;;;;;;10.10;4.40;;;;;;;;;;5044854;28;20075;-87
2021/03/23 01:07:06;;;;;;;8.10;4.30;;;;;;;;;;5051381;28;20472;-87
2021/03/23 01:09:32;;;;;;;15.13;4.70;;;;;;;;;;5052337;28;20075;-87
2021/03/23 01:11:58;;;;;;;9.05;4.07;;;;;;;;;;5049058;28;20025;-87
2021/03/23 01:14:24;;;;;;;8.85;4.38;;;;;;;;;;5050111;28;20018;-87
2021/03/23 01:16:50;;;;;;;7.85;4.45;;;;;;;;;;5049774;28;20377;-88
2021/03/23 01:19:16;;;;;;;11.68;5.93;;;;;;;;;;5054814;28;20025;-88
2021/03/23 01:21:42;;;;;;;9.52;4.88;;;;;;;;;;5049900;28;20083;-88
2021/03/23 01:24:08;;;;;;;10.52;4.75;;;;;;;;;;5053425;28;20024;-88
2021/03/23 01:26:35;;;;;;;9.15;4.78;;;;;;;;;;5053660;28;20365;-88
2021/03/23 01:29:00;;;;;;;6.80;4.45;;;;;;;;;;5059020;28;20036;-88
2021/03/23 01:31:27;;;;;;;9.73;4.85;;;;;;;;;;5074083;28;20036;-88
2021/03/23 01:33:53;;;;;;;10.00;5.10;;;;;;;;;;5081535;28;20112;-87
2021/03/23 01:36:19;;;;;;;11.65;5.25;;;;;;;;;;5052222;28;20076;-87
2021/03/23 01:38:45;;;;;;;11.57;5.40;;;;;;;;;;5058701;28;20116;-87
2021/03/23 01:41:11;;;;;;;11.23;4.85;;;;;;;;;;5053464;28;20056;-87
2021/03/23 01:43:37;;;;;;;11.32;4.85;;;;;;;;;;5058850;28;20150;-87
2021/03/23 01:46:23;;;;;;;8.15;5.03;;;;;;;;;;5053135;28;20017;-87
2021/03/23 01:48:49;;;;;;;9.80;5.70;;;;;;;;;;5053168;28;20064;-88
2021/03/23 01:51:16;;;;;;;11.38;5.47;;;;;;;;;;5043823;28;20107;-87
2021/03/23 01:53:44;;;;;;;15.23;4.90;;;;;;;;;;5053483;28;20056;-87
2021/03/23 01:56:12;;;;;;;9.30;5.35;;;;;;;;;;5054217;28;20078;-87
2021/03/23 01:58:41;;;;;;;14.23;4.95;;;;;;;;;;5049746;28;20029;-88
2021/03/23 02:01:07;;;;;;;8.75;4.80;;;;;;;;;;5052038;28;20124;-87
2021/03/23 02:03:34;;;;;;;8.50;5.88;;;;;;;;;;5047011;28;20060;-87
2021/03/23 02:06:00;;;;;;;9.88;6.05;;;;;;;;;;5052537;28;20029;-87
2021/03/23 02:08:27;;;;;;;9.95;5.38;;;;;;;;;;5061047;28;20032;-87
2021/03/23 02:10:54;;;;;;;11.57;4.85;;;;;;;;;;5054079;28;20020;-87
2021/03/23 02:13:20;;;;;;;9.48;4.80;;;;;;;;;;5051317;28;20021;-87
2021/03/23 02:15:47;;;;;;;14.00;5.93;;;;;;;;;;5045150;28;20024;-87
2021/03/23 02:18:15;;;;;;;8.63;4.93;;;;;;;;;;5051149;28;20082;-87
2021/03/23 02:20:56;;;;;;;9.45;4.60;;;;;;;;;;5052593;28;20048;-87
2021/03/23 02:23:23;;;;;;;9.15;4.43;;;;;;;;;;5063867;28;20051;-87
2021/03/23 02:25:49;;;;;;;8.73;4.57;;;;;;;;;;5053263;28;20029;-87
2021/03/23 02:28:15;;;;;;;11.55;5.32;;;;;;;;;;5052125;28;20043;-87
2021/03/23 02:30:42;;;;;;;7.88;4.72;;;;;;;;;;5052064;28;20423;-87
2021/03/23 02:33:08;;;;;;;8.52;4.45;;;;;;;;;;5052029;28;20024;-87
2021/03/23 02:35:36;;;;;;;7.03;4.20;;;;;;;;;;5051350;28;20485;-87
2021/03/23 02:38:02;;;;;;;7.63;4.40;;;;;;;;;;5051859;28;20550;-87
2021/03/23 02:40:29;;;;;;;12.25;5.53;;;;;;;;;;5047977;28;20373;-87
2021/03/23 02:42:55;;;;;;;7.45;3.95;;;;;;;;;;5052092;28;20025;-87
2021/03/23 02:45:21;;;;;;;9.80;4.50;;;;;;;;;;5050795;28;20476;-87
2021/03/23 02:47:48;;;;;;;10.50;4.97;;;;;;;;;;5051845;28;20025;-87
2021/03/23 02:50:14;;;;;;;8.60;4.18;;;;;;;;;;5057508;28;20392;-87
2021/03/23 02:52:40;;;;;;;8.15;4.22;;;;;;;;;;5048991;28;20029;-87
2021/03/23 02:55:06;;;;;;;7.25;3.83;;;;;;;;;;5052816;28;20044;-87
2021/03/23 02:57:32;;;;;;;8.38;3.90;;;;;;;;;;5040624;28;20087;-87
2021/03/23 02:59:59;;;;;;;7.25;3.78;;;;;;;;;;5062956;28;20029;-87
2021/03/23 03:02:25;;;;;;;7.03;3.47;;;;;;;;;;5048758;28;20103;-87
2021/03/23 03:04:51;;;;;;;7.63;3.33;;;;;;;;;;5051428;28;20021;-87
2021/03/23 03:07:17;;;;;;;6.68;3.35;;;;;;;;;;5048583;28;20025;-87
2021/03/23 03:09:43;;;;;;;8.65;3.67;;;;;;;;;;5051472;28;20079;-87
2021/03/23 03:12:09;;;;;;;8.75;3.47;;;;;;;;;;5045232;28;20026;-87
2021/03/23 03:14:35;;;;;;;5.00;3.30;;;;;;;;;;5052495;28;20499;-87
2021/03/23 03:17:01;;;;;;;5.40;3.20;;;;;;;;;;5050710;28;20029;-87
2021/03/23 03:19:27;;;;;;;6.80;3.15;;;;;;;;;;5051165;28;20033;-87
2021/03/23 03:21:53;;;;;;;6.05;3.00;;;;;;;;;;5063721;28;20366;-87
2021/03/23 03:24:19;;;;;;;4.60;2.90;;;;;;;;;;5048088;28;20032;-87
2021/03/23 03:26:45;;;;;;;6.93;3.35;;;;;;;;;;5051012;28;20044;-87
2021/03/23 03:29:11;;;;;;;5.45;3.30;;;;;;;;;;5050391;28;20025;-87
2021/03/23 03:31:37;;;;;;;5.55;3.70;;;;;;;;;;5049097;28;20028;-87
2021/03/23 03:34:04;;;;;;;4.03;3.25;;;;;;;;;;5050726;28;20473;-87
2021/03/23 03:36:31;;;;;;;7.82;3.60;;;;;;;;;;5051065;28;20455;-87
2021/03/23 03:38:58;;;;;;;4.63;3.17;;;;;;;;;;5044223;28;20068;-87
2021/03/23 03:41:25;;;;;;;6.32;3.63;;;;;;;;;;5047799;28;20025;-88
2021/03/23 03:43:51;;;;;;;4.82;3.42;;;;;;;;;;5057472;28;20056;-87
2021/03/23 03:46:17;;;;;;;5.90;3.17;;;;;;;;;;5050989;28;20492;-87
2021/03/23 03:48:43;;;;;;;8.48;3.60;;;;;;;;;;5057530;28;20025;-87
2021/03/23 03:51:09;;;;;;;4.40;2.55;;;;;;;;;;5050435;28;20059;-87
2021/03/23 03:53:35;;;;;;;9.82;3.10;;;;;;;;;;5050494;28;20033;-88
2021/03/23 03:56:02;;;;;;;6.50;2.63;;;;;;;;;;5062838;28;20087;-88
2021/03/23 03:58:29;;;;;;;7.25;2.72;;;;;;;;;;5050544;28;20599;-87
2021/03/23 04:00:55;;;;;;;4.60;2.85;;;;;;;;;;5050759;28;20488;-87
2021/03/23 04:03:23;;;;;;;3.88;2.35;;;;;;;;;;5050101;28;20037;-87
2021/03/23 04:05:49;;;;;;;4.90;2.50;;;;;;;;;;5050249;28;20111;-87
2021/03/23 04:08:16;;;;;;;4.60;2.53;;;;;;;;;;5057520;28;20031;-87
2021/03/23 04:10:42;;;;;;;4.20;2.38;;;;;;;;;;5050756;28;20021;-87
2021/03/23 04:13:09;;;;;;;4.35;2.38;;;;;;;;;;5050862;28;20068;-87
2021/03/23 04:15:39;;;;;;;3.55;2.60;;;;;;;;;;5048552;28;20044;-87
2021/03/23 04:18:07;;;;;;;5.88;2.42;;;;;;;;;;5050674;28;20029;-87
2021/03/23 04:20:33;;;;;;;4.38;2.63;;;;;;;;;;5051219;28;20025;-87
2021/03/23 04:22:59;;;;;;;6.80;2.65;;;;;;;;;;5058704;28;20072;-87
2021/03/23 04:25:26;;;;;;;4.75;2.30;;;;;;;;;;5050166;28;20052;-87
2021/03/23 04:27:52;;;;;;;5.85;2.83;;;;;;;;;;5044159;28;20112;-88
2021/03/23 04:30:19;;;;;;;3.78;2.50;;;;;;;;;;5048888;28;20032;-88
2021/03/23 04:32:46;;;;;;;4.35;2.60;;;;;;;;;;5050462;28;20025;-87
2021/03/23 04:35:22;;;;;;;4.53;2.30;;;;;;;;;;5049801;28;20021;-87
2021/03/23 04:37:48;;;;;;;3.63;2.60;;;;;;;;;;5050261;28;20025;-87
2021/03/23 04:40:14;;;;;;;2.63;2.00;;;;;;;;;;5049967;28;20079;-87
2021/03/23 04:42:40;;;;;;;5.50;2.60;;;;;;;;;;5049747;28;20032;-88
2021/03/23 04:45:06;;;;;;;3.67;2.38;;;;;;;;;;5050250;28;20410;-87
2021/03/23 04:47:32;;;;;;;5.45;3.17;;;;;;;;;;5042112;28;20029;-88
2021/03/23 04:49:58;;;;;;;6.65;2.63;;;;;;;;;;5036933;28;20032;-87
2021/03/23 04:52:24;;;;;;;7.70;3.00;;;;;;;;;;5050607;28;20381;-87
2021/03/23 04:54:50;;;;;;;5.03;3.08;;;;;;;;;;5041726;28;20066;-88
2021/03/23 04:57:16;;;;;;;4.43;2.65;;;;;;;;;;5051335;28;20079;-87
2021/03/23 04:59:42;;;;;;;5.50;3.05;;;;;;;;;;5048736;28;20477;-88
2021/03/23 05:02:08;;;;;;;5.35;3.40;;;;;;;;;;5052740;28;20032;-88
2021/03/23 05:04:34;;;;;;;4.88;3.50;;;;;;;;;;5052920;28;20029;-87
2021/03/23 05:07:00;;;;;;;7.30;4.00;;;;;;;;;;5053551;28;20514;-87
2021/03/23 05:09:26;;;;;;;7.30;3.50;;;;;;;;;;5053880;28;20021;-87
2021/03/23 05:11:52;;;;;;;3.92;2.90;;;;;;;;;;5055042;28;20024;-87
2021/03/23 05:14:18;;;;;;;6.18;3.40;;;;;;;;;;5054506;28;20456;-87
2021/03/23 05:16:44;;;;;;;8.55;4.13;;;;;;;;;;5053520;28;20067;-88
2021/03/23 05:19:10;;;;;;;8.75;3.90;;;;;;;;;;5055105;28;20187;-88
2021/03/23 05:21:36;;;;;;;7.43;3.78;;;;;;;;;;5054603;28;20041;-87
2021/03/23 05:24:02;;;;;;;11.75;4.18;;;;;;;;;;5054210;28;20049;-88
2021/03/23 05:26:29;;;;;;;8.80;4.20;;;;;;;;;;5055215;28;20529;-89
2021/03/23 05:28:55;;;;;;;6.53;4.07;;;;;;;;;;5053929;28;20048;-88
2021/03/23 05:31:22;;;;;;;6.75;4.55;;;;;;;;;;5054259;28;20419;-88
2021/03/23 05:33:49;;;;;;;7.25;4.75;;;;;;;;;;5062806;28;20029;-88
2021/03/23 05:36:15;;;;;;;7.35;4.82;;;;;;;;;;5074675;28;20025;-88
2021/03/23 05:38:41;;;;;;;10.13;4.53;;;;;;;;;;5066668;28;20081;-88
2021/03/23 05:41:11;;;;;;;9.00;4.57;;;;;;;;;;5054600;28;20041;-87
2021/03/23 05:43:48;;;;;;;7.68;4.47;;;;;;;;;;5052826;28;20044;-88
2021/03/23 05:46:23;;;;;;;6.40;3.15;;;;;;;;;;5051469;28;20029;-88
2021/03/23 05:49:08;;;;;;;7.13;4.43;;;;;;;;;;5044412;28;20040;-89
2021/03/23 05:51:40;;;;;;;7.70;4.03;;;;;;;;;;5044871;28;20425;-88
2021/03/23 05:54:17;;;;;;;6.78;3.33;;;;;;;;;;5051106;28;20033;-88
2021/03/23 05:56:44;;;;;;;8.32;3.65;;;;;;;;;;5052537;28;20062;-88
2021/03/23 05:59:37;;;;;;;10.07;4.32;;;;;;;;;;5052648;28;20056;-87
2021/03/23 06:02:19;;;;;;;7.03;3.80;;;;;;;;;;5049105;28;20029;-87
2021/03/23 06:04:46;;;;;;;5.22;3.22;;;;;;;;;;5047854;28;20088;-87
2021/03/23 06:07:16;;;;;;;6.38;3.45;;;;;;;;;;5048511;28;20025;-87
2021/03/23 06:09:43;;;;;;;5.75;3.15;;;;;;;;;;5058314;28;20061;-88
2021/03/23 06:12:19;;;;;;;5.50;2.85;;;;;;;;;;5047198;28;20428;-87
2021/03/23 06:14:58;;;;;;;7.53;3.22;;;;;;;;;;5048363;28;20028;-87
2021/03/23 06:17:34;;;;;;;4.57;3.10;;;;;;;;;;5052297;28;20029;-88
2021/03/23 06:20:18;;;;;;;5.57;3.13;;;;;;;;;;5051331;28;20369;-88
2021/03/23 06:22:55;;;;;;;7.05;3.15;;;;;;;;;;5043608;28;20461;-88
2021/03/23 06:25:33;;;;;;;5.22;3.00;;;;;;;;;;5065561;28;20021;-88
2021/03/23 06:28:07;;;;;;;5.07;2.80;;;;;;;;;;5053313;28;20021;-88
2021/03/23 06:30:39;;;;;;;5.53;3.30;;;;;;;;;;5054638;28;20025;-88
2021/03/23 06:33:09;;;;;;;5.20;2.90;;;;;;;;;;5067597;28;20112;-88
2021/03/23 06:35:41;;;;;;;7.18;3.40;;;;;;;;;;5055910;28;20384;-87
2021/03/23 06:38:14;;;;;;;5.75;2.80;;;;;;;;;;5053204;28;20024;-87
2021/03/23 06:41:00;;;;;;;7.38;2.58;;;;;;;;;;5052900;28;20025;-87
2021/03/23 06:43:30;;;;;;;5.15;3.05;;;;;;;;;;5050369;28;20466;-88
2021/03/23 06:46:04;;;;;;;6.43;2.95;;;;;;;;;;5050467;28;20025;-87
2021/03/23 06:48:31;;;;;;;4.47;2.95;;;;;;;;;;5050651;28;20040;-88
2021/03/23 06:51:08;;;;;;;9.45;3.30;;;;;;;;;;5053846;28;20079;-87
2021/03/23 06:53:35;;;;;;;8.32;3.55;;;;;;;;;;5052594;28;20376;-87
2021/03/23 06:56:16;;;;;;;4.30;3.22;;;;;;;;;;5050442;28;20048;-87
2021/03/23 06:58:42;;;;;;;5.10;3.22;;;;;;;;;;5052025;28;20025;-88
2021/03/23 07:01:19;;;;;;;7.10;3.15;;;;;;;;;;5054877;28;20032;-88
2021/03/23 07:03:50;;;;;;;6.72;3.20;;;;;;;;;;5051768;28;20029;-87
2021/03/23 07:06:16;;;;;;;6.85;3.45;;;;;;;;;;5053242;28;20027;-87
2021/03/23 07:08:43;;;;;;;5.78;3.63;;;;;;;;;;5052920;28;20033;-87
2021/03/23 07:11:09;;;;;;;8.95;3.25;;;;;;;;;;5052328;28;20384;-87
2021/03/23 07:13:37;;;;;;;5.78;3.30;;;;;;;;;;5060527;28;20064;-87
2021/03/23 07:16:12;;;;;;;6.15;3.83;;;;;;;;;;5052683;28;20029;-88
2021/03/23 07:18:51;;;;;;;7.78;3.72;;;;;;;;;;5053264;28;20025;-87
2021/03/23 07:21:23;;;;;;;7.05;3.60;;;;;;;;;;5053051;28;20373;-88
2021/03/23 07:24:04;;;;;;;4.88;3.20;;;;;;;;;;5052630;28;20534;-88
2021/03/23 07:26:35;;;;;;;5.35;2.90;;;;;;;;;;5049217;28;20029;-87
2021/03/23 07:29:10;;;;;;;6.00;3.40;;;;;;;;;;5053421;28;20570;-87
2021/03/23 07:31:59;;;;;;;5.35;3.30;;;;;;;;;;5050637;28;20021;-88
2021/03/23 07:34:44;;;;;;;5.28;3.03;;;;;;;;;;5052791;28;20051;-88
2021/03/23 07:37:13;;;;;;;4.20;2.72;;;;;;;;;;5052203;28;20116;-87
2021/03/23 07:39:43;;;;;;;4.20;3.03;;;;;;;;;;5052352;28;20032;-87
2021/03/23 07:42:47;;;;;;;4.90;2.83;;;;;;;;;;5050100;28;20182;-87
2021/03/23 07:45:28;;;;;;;6.32;3.47;;;;;;;;;;4980535;28;20569;-87
2021/03/23 07:47:59;;;;;;;4.28;2.67;;;;;;;;;;4992368;28;20035;-87
2021/03/23 07:50:30;;;;;;;5.82;2.50;;;;;;;;;;5015069;28;20094;-88
2021/03/23 07:53:02;;;;;;;4.10;2.35;;;;;;;;;;5045377;28;20090;-87
2021/03/23 07:55:28;;;;;;;3.88;2.78;;;;;;;;;;5051938;28;20484;-88
2021/03/23 07:57:54;;;;;;;4.30;2.58;;;;;;;;;;5050950;28;20130;-87
2021/03/23 08:00:41;;;;;;;3.75;2.67;;;;;;;;;;5051042;28;20034;-88
2021/03/23 08:03:17;;;;;;;3.65;2.47;;;;;;;;;;5053021;28;20040;-87
2021/03/23 08:05:48;;;;;;;3.80;2.30;;;;;;;;;;5052010;28;20021;-87
2021/03/23 08:08:22;;;;;;;4.93;2.70;;;;;;;;;;5044344;28;20037;-87
2021/03/23 08:11:07;;;;;;;3.83;2.47;;;;;;;;;;5046658;28;20028;-87
2021/03/23 08:14:02;;;;;;;4.30;2.33;;;;;;;;;;5051822;28;20021;-87
2021/03/23 08:16:40;;;;;;;4.57;2.85;;;;;;;;;;4991091;28;20434;-87
2021/03/23 08:19:12;;;;;;;5.35;2.85;;;;;;;;;;5051111;28;20032;-87
2021/03/23 08:21:44;;;;;;;5.40;3.08;;;;;;;;;;5051847;28;20033;-87
2021/03/23 08:24:14;;;;;;;3.05;2.40;;;;;;;;;;5048290;28;20460;-87
2021/03/23 08:26:59;;;;;;;5.13;3.00;;;;;;;;;;5060671;28;20031;-87
2021/03/23 08:29:31;;;;;;;2.65;2.28;;;;;;;;;;5052151;28;20106;-87
2021/03/23 08:32:16;;;;;;;4.07;2.53;;;;;;;;;;5050060;28;20370;-87
2021/03/23 08:34:42;;;;;;;3.42;2.20;;;;;;;;;;5054774;28;20128;-87
2021/03/23 08:37:23;;;;;;;3.95;2.58;;;;;;;;;;5060413;28;20032;-87
2021/03/23 08:40:13;;;;;;;5.95;2.90;;;;;;;;;;5057973;28;20535;-87
2021/03/23 08:42:43;;;;;;;4.30;2.58;;;;;;;;;;5053915;28;20484;-87
2021/03/23 08:45:16;;;;;;;3.33;2.58;;;;;;;;;;5054980;28;20025;-87
2021/03/23 08:47:44;;;;;;;5.07;3.05;;;;;;;;;;5055642;28;20488;-87
2021/03/23 08:50:29;;;;;;;6.03;3.70;;;;;;;;;;5054018;28;20610;-87
2021/03/23 08:52:57;;;;;;;3.80;2.65;;;;;;;;;;5053056;28;20044;-87
2021/03/23 08:55:33;;;;;;;4.93;2.95;;;;;;;;;;5042490;28;20120;-88
2021/03/23 08:58:03;;;;;;;5.28;3.25;;;;;;;;;;5050097;28;20382;-88
2021/03/23 09:00:36;;;;;;;3.83;2.75;;;;;;;;;;5054289;28;20082;-87
2021/03/23 09:03:10;;;;;;;7.97;3.58;;;;;;;;;;5051078;28;20028;-88
2021/03/23 09:05:52;;;;;;;4.57;3.00;;;;;;;;;;5063290;28;20476;-88
2021/03/23 09:08:21;;;;;;;4.93;2.50;;;;;;;;;;5046753;28;20099;-88
2021/03/23 09:10:57;;;;;;;5.85;2.78;;;;;;;;;;5049376;28;20028;-88
2021/03/23 09:13:44;;;;;;;3.92;2.92;;;;;;;;;;5050732;28;20044;-87
2021/03/23 09:16:13;;;;;;;4.47;2.60;;;;;;;;;;5015352;28;20352;-87
2021/03/23 09:18:58;;;;;;;5.20;3.28;;;;;;;;;;5053931;28;20074;-87
2021/03/23 09:21:24;;;;;;;5.32;2.80;;;;;;;;;;5052329;28;20063;-87
2021/03/23 09:23:53;;;;;;;5.25;2.60;;;;;;;;;;5055066;28;20072;-88
2021/03/23 09:26:40;;;;;;;3.97;2.30;;;;;;;;;;5055553;28;20025;-87
2021/03/23 09:29:24;;;;;;;3.42;2.55;;;;;;;;;;5051770;28;20037;-87
2021/03/23 09:31:50;;;;;;;4.15;2.28;;;;;;;;;;5064420;28;20108;-87
2021/03/23 09:34:35;;;;;;;4.63;2.60;;;;;;;;;;5051373;28;20022;-87
2021/03/23 09:37:16;;;;;;;4.05;2.55;;;;;;;;;;5051947;28;20824;-87
2021/03/23 09:39:43;;;;;;;2.97;2.05;;;;;;;;;;5054851;28;20055;-87
2021/03/23 09:42:22;;;;;;;3.80;2.10;;;;;;;;;;5068051;28;20021;-87
2021/03/23 09:45:05;;;;;;;1.85;1.60;;;;;;;;;;5041934;28;20025;-87
2021/03/23 09:47:50;;;;;;;3.03;2.35;;;;;;;;;;5045279;28;20048;-88
2021/03/23 09:50:34;;;;;;;2.58;1.70;;;;;;;;;;5052659;28;20025;-87
2021/03/23 09:53:02;;;;;;;3.20;1.90;;;;;;;;;;5052046;28;20019;-87
2021/03/23 09:55:29;;;;;;;2.58;1.60;;;;;;;;;;5047569;28;20032;-87
2021/03/23 09:57:56;;;;;;;2.58;1.50;;;;;;;;;;5041480;28;20388;-87
2021/03/23 10:00:30;;;;;;;4.40;1.60;;;;;;;;;;5041716;28;20476;-88
2021/03/23 10:02:57;;;;;;;2.67;1.23;;;;;;;;;;5055928;28;20037;-87
2021/03/23 10:05:27;;;;;;;4.72;1.30;;;;;;;;;;5053806;28;20029;-87
2021/03/23 10:07:54;;;;;;;4.85;1.75;;;;;;;;;;5054411;28;20021;-87
2021/03/23 10:10:26;;;;;;;3.90;1.15;;;;;;;;;;5054382;28;20064;-87
2021/03/23 10:12:54;;;;;;;4.35;1.40;;;;;;;;;;5054441;28;20050;-87
2021/03/23 10:15:40;;;;;;;3.50;1.33;;;;;;;;;;5054704;28;20107;-87
2021/03/23 10:18:10;;;;;;;4.85;1.27;;;;;;;;;;5053714;28;20028;-88
2021/03/23 10:20:37;;;;;;;2.03;1.35;;;;;;;;;;5053837;28;20068;-87
2021/03/23 10:23:03;;;;;;;4.20;1.65;;;;;;;;;;5052436;28;20037;-87
2021/03/23 10:25:29;;;;;;;2.05;1.23;;;;;;;;;;5051797;28;20488;-87
2021/03/23 10:28:00;;;;;;;2.15;1.17;;;;;;;;;;5053872;28;20053;-88
2021/03/23 10:30:29;;;;;;;4.15;1.30;;;;;;;;;;5063551;28;20074;-88
2021/03/23 10:32:56;;;;;;;2.58;1.40;;;;;;;;;;5054078;28;20033;-88
2021/03/23 10:35:25;;;;;;;3.75;1.38;;;;;;;;;;5054042;28;20376;-88
2021/03/23 10:38:10;;;;;;;4.53;1.40;;;;;;;;;;5053923;28;20066;-88
2021/03/23 10:40:38;;;;;;;1.75;1.30;;;;;;;;;;5039080;28;20025;-88
2021/03/23 10:43:04;;;;;;;2.67;1.25;;;;;;;;;;5053750;28;20021;-88
2021/03/23 10:45:37;;;;;;;5.80;1.95;;;;;;;;;;5054116;28;20029;-88
2021/03/23 10:48:14;;;;;;;2.67;1.47;;;;;;;;;;5053399;28;20044;-88
2021/03/23 10:50:40;;;;;;;2.35;1.88;;;;;;;;;;5053644;28;20075;-88
2021/03/23 10:53:20;;;;;;;2.55;1.13;;;;;;;;;;5053413;28;20516;-88
2021/03/23 10:55:48;;;;;;;4.43;1.50;;;;;;;;;;5053572;28;20025;-88
2021/03/23 10:58:23;;;;;;;3.15;1.05;;;;;;;;;;5053656;28;20028;-88
2021/03/23 11:01:08;;;;;;;2.53;1.17;;;;;;;;;;5053755;28;20044;-88
2021/03/23 11:03:34;;;;;;;4.10;1.25;;;;;;;;;;5040385;28;20022;-88
2021/03/23 11:06:02;;;;;;;2.42;1.25;;;;;;;;;;5058146;28;20021;-88
2021/03/23 11:08:28;;;;;;;3.08;1.20;;;;;;;;;;5053085;28;20102;-88
2021/03/23 11:10:59;;;;;;;3.63;1.35;;;;;;;;;;5053023;28;20028;-88
2021/03/23 11:13:25;;;;;;;2.83;1.42;;;;;;;;;;5053331;28;20025;-88
2021/03/23 11:15:53;;;;;;;3.28;1.20;;;;;;;;;;5052997;28;20384;-88
2021/03/23 11:18:33;;;;;;;4.07;1.13;;;;;;;;;;5052607;28;20028;-89
2021/03/23 11:21:00;;;;;;;2.03;1.40;;;;;;;;;;5054155;28;20075;-88
2021/03/23 11:23:39;;;;;;;4.38;1.45;;;;;;;;;;5052503;28;20041;-88
2021/03/23 11:26:06;;;;;;;2.47;1.08;;;;;;;;;;5052904;28;20032;-88
2021/03/23 11:28:32;;;;;;;2.90;1.33;;;;;;;;;;5053952;28;20033;-88
2021/03/23 11:31:02;;;;;;;3.90;1.40;;;;;;;;;;5052986;28;20031;-88
2021/03/23 11:33:43;;;;;;;6.72;1.70;;;;;;;;;;5056790;28;20017;-87
2021/03/23 11:36:11;;;;;;;2.97;1.60;;;;;;;;;;5047974;28;20494;-87
2021/03/23 11:38:37;;;;;;;4.28;1.70;;;;;;;;;;5052902;28;20480;-87
2021/03/23 11:41:05;;;;;;;4.78;2.03;;;;;;;;;;5054081;28;20029;-88
2021/03/23 11:43:33;;;;;;;6.20;2.25;;;;;;;;;;5052836;28;20069;-87
2021/03/23 11:46:02;;;;;;;4.18;1.70;;;;;;;;;;5052484;28;20029;-87
2021/03/23 11:48:32;;;;;;;4.70;2.08;;;;;;;;;;5042682;28;20030;-87
2021/03/23 11:51:01;;;;;;;4.63;1.90;;;;;;;;;;5049854;28;20028;-87
2021/03/23 11:53:27;;;;;;;5.15;2.00;;;;;;;;;;5046896;28;20476;-87
2021/03/23 11:55:53;;;;;;;4.53;1.98;;;;;;;;;;5044393;28;20484;-87
2021/03/23 11:58:20;;;;;;;6.47;1.83;;;;;;;;;;5055164;28;20044;-88
2021/03/23 12:00:46;;;;;;;2.50;1.70;;;;;;;;;;5059402;28;20112;-88
2021/03/23 12:03:17;;;;;;;1.98;1.48;;;;;;;;;;5058672;28;20024;-89
2021/03/23 12:05:44;;;;;;;3.00;1.50;;;;;;;;;;5048725;28;20020;-88
2021/03/23 12:08:14;;;;;;;4.50;1.50;;;;;;;;;;5069303;28;20021;-88
2021/03/23 12:10:46;;;;;;;5.60;1.63;;;;;;;;;;5048464;28;20072;-88
2021/03/23 12:13:31;;;;;;;2.13;1.42;;;;;;;;;;5055563;28;20043;-89
2021/03/23 12:16:01;;;;;;;2.38;1.38;;;;;;;;;;5049052;28;20087;-88
2021/03/23 12:18:29;;;;;;;2.15;1.30;;;;;;;;;;5044033;28;20047;-88
2021/03/23 12:20:59;;;;;;;2.47;1.27;;;;;;;;;;5061545;28;20021;-88
2021/03/23 12:23:26;;;;;;;3.95;1.80;;;;;;;;;;5056548;28;20045;-88
2021/03/23 12:25:53;;;;;;;5.57;2.00;;;;;;;;;;5049511;28;20511;-88
2021/03/23 12:28:19;;;;;;;5.38;1.75;;;;;;;;;;5049573;28;20021;-88
2021/03/23 12:30:46;;;;;;;5.85;1.75;;;;;;;;;;5052646;28;20469;-88
2021/03/23 12:33:12;;;;;;;3.47;1.63;;;;;;;;;;5057385;28;20025;-88
2021/03/23 12:35:38;;;;;;;5.45;2.10;;;;;;;;;;5050358;28;20050;-89
2021/03/23 12:38:05;;;;;;;4.45;2.20;;;;;;;;;;5051280;28;20041;-88
2021/03/23 12:40:31;;;;;;;6.18;2.42;;;;;;;;;;5050537;28;20021;-88
2021/03/23 12:42:57;;;;;;;7.00;2.33;;;;;;;;;;5053230;28;20082;-88
2021/03/23 12:45:35;;;;;;;7.55;3.17;;;;;;;;;;5051553;28;20072;-89
2021/03/23 12:48:01;;;;;;;7.65;2.17;;;;;;;;;;5050166;28;20083;-88
2021/03/23 12:50:27;;;;;;;7.65;2.92;;;;;;;;;;5059467;28;20519;-89
2021/03/23 12:52:55;;;;;;;6.55;2.65;;;;;;;;;;5050990;28;20039;-88
2021/03/23 12:55:25;;;;;;;8.48;2.95;;;;;;;;;;5055862;28;20450;-88
2021/03/23 12:57:56;;;;;;;6.85;3.05;;;;;;;;;;5058528;28;20400;-88
2021/03/23 13:00:27;;;;;;;8.18;2.63;;;;;;;;;;5054287;28;20025;-89
2021/03/23 13:02:54;;;;;;;7.18;2.65;;;;;;;;;;5052537;28;20029;-88
2021/03/23 13:05:20;;;;;;;4.22;2.40;;;;;;;;;;5058729;28;20484;-89
2021/03/23 13:07:47;;;;;;;7.65;3.05;;;;;;;;;;5055474;28;20075;-89
2021/03/23 13:10:30;;;;;;;4.97;2.85;;;;;;;;;;5054269;28;20024;-89
2021/03/23 13:12:57;;;;;;;5.80;2.97;;;;;;;;;;5051226;28;20518;-90
2021/03/23 13:15:24;;;;;;;7.90;3.00;;;;;;;;;;5052117;28;20025;-89
2021/03/23 13:17:50;;;;;;;6.03;2.80;;;;;;;;;;5050889;28;20380;-88
2021/03/23 13:20:17;;;;;;;7.95;2.78;;;;;;;;;;5053758;28;20029;-89
2021/03/23 13:22:47;;;;;;;6.10;2.75;;;;;;;;;;5064172;28;20045;-89
2021/03/23 13:25:33;;;;;;;5.90;2.90;;;;;;;;;;5072271;28;20036;-88
2021/03/23 13:27:59;;;;;;;6.95;2.97;;;;;;;;;;5073425;28;20033;-86
2021/03/23 13:30:29;;;;;;;7.45;3.13;;;;;;;;;;5056542;28;20511;-87
2021/03/23 13:32:57;;;;;;;6.95;3.17;;;;;;;;;;5051383;28;20483;-87
2021/03/23 13:35:24;;;;;;;4.55;2.80;;;;;;;;;;5052924;28;20045;-88
2021/03/23 13:37:50;;;;;;;6.18;2.78;;;;;;;;;;5057367;28;20028;-88
2021/03/23 13:40:25;;;;;;;12.68;2.70;;;;;;;;;;5056667;28;20029;-88
2021/03/23 13:42:55;;;;;;;4.93;2.33;;;;;;;;;;5042641;28;20057;-88
2021/03/23 13:45:26;;;;;;;5.00;2.95;;;;;;;;;;5037077;28;20029;-88
2021/03/23 13:47:52;;;;;;;9.30;3.10;;;;;;;;;;5044312;28;20017;-88
2021/03/23 13:50:23;;;;;;;7.72;3.20;;;;;;;;;;5055128;28;20029;-87
2021/03/23 13:52:51;;;;;;;7.78;3.50;;;;;;;;;;5057261;28;20480;-88
2021/03/23 13:55:25;;;;;;;8.95;4.15;;;;;;;;;;5064638;28;20067;-86
2021/03/23 13:57:52;;;;;;;6.95;3.80;;;;;;;;;;5051903;28;20028;-86
2021/03/23 14:00:22;;;;;;;7.63;3.90;;;;;;;;;;5053754;28;20033;-87
2021/03/23 14:02:49;;;;;;;7.07;3.60;;;;;;;;;;5054357;28;20025;-87
2021/03/23 14:05:15;;;;;;;11.73;5.15;;;;;;;;;;5054527;28;20020;-87
2021/03/23 14:07:44;;;;;;;8.18;4.13;;;;;;;;;;5054771;28;20048;-87
2021/03/23 14:10:13;;;;;;;9.57;5.05;;;;;;;;;;5045493;28;20029;-87
2021/03/23 14:12:39;;;;;;;12.55;4.65;;;;;;;;;;5048654;28;20025;-87
2021/03/23 14:15:05;;;;;;;8.60;4.70;;;;;;;;;;5054031;28;20032;-87
2021/03/23 14:17:33;;;;;;;9.48;4.78;;;;;;;;;;5054035;28;20123;-87
2021/03/23 14:20:00;;;;;;;7.63;4.43;;;;;;;;;;5042328;28;20025;-87
2021/03/23 14:22:31;;;;;;;20.33;5.75;;;;;;;;;;5053771;28;20049;-86
2021/03/23 14:25:02;;;;;;;13.18;5.10;;;;;;;;;;5053425;28;20029;-86
2021/03/23 14:27:28;;;;;;;13.82;5.18;;;;;;;;;;5053870;28;20116;-86
2021/03/23 14:29:54;;;;;;;12.05;4.63;;;;;;;;;;5053668;28;20125;-86
2021/03/23 14:32:21;;;;;;;9.48;4.72;;;;;;;;;;5054536;28;20113;-86
2021/03/23 14:34:47;;;;;;;16.02;5.70;;;;;;;;;;5057572;28;20388;-86
2021/03/23 14:37:15;;;;;;;12.10;4.82;;;;;;;;;;5053786;28;20029;-86
2021/03/23 14:39:43;;;;;;;11.52;5.20;;;;;;;;;;5038112;28;20029;-87
2021/03/23 14:42:17;;;;;;;15.43;5.13;;;;;;;;;;5054488;28;20025;-87
2021/03/23 14:44:43;;;;;;;13.85;6.95;;;;;;;;;;5034617;28;20025;-87
2021/03/23 14:47:16;;;;;;;14.02;6.72;;;;;;;;;;5045676;28;20115;-87
2021/03/23 14:49:42;;;;;;;14.07;5.22;;;;;;;;;;5051845;28;20053;-88
2021/03/23 14:52:12;;;;;;;10.02;5.18;;;;;;;;;;5051598;28;20040;-87
2021/03/23 14:54:38;;;;;;;12.30;5.18;;;;;;;;;;5054104;28;20021;-86
2021/03/23 14:57:04;;;;;;;10.00;5.93;;;;;;;;;;5053287;28;20117;-87